Birdseye, Utah
Current Conditions -  °F | °C
As of 11:48 AM on Thursday 23 Oct 2014 (Local Time) from KPVU Reporting Station
Scattered Clouds Scattered Clouds  
Wind Chill: 57°   Ceiling: Unl
Heat Index: 57°   Visibility: 10mi
Dew Point: 36°   Wind: 0mph
Humidity: 44%   Direction: NA
Pressure: 30.18"   Gusts: NA
Location:  39.7497°N, 111.442°W
Report Text: KPVU 231748Z 00000KT 10SM SCT100 14/02 A3018
Loading
Personal Weather Stations






























Interactive Weather Map
Tropical Storm Tracking
New forecast layout! Learn more

10-Day Weather Forecast

Advertisements
Track Severe Weather on mobile